High temp

Not for real navigation. The accuracy of this data is not assured See disclaimer for more information



ICAO NAME COUNTRY WIND Kt GUST Kt VIS m TEMP/DEW C BARO METAR
KHHV Hoover Diana TX United States 13 20 9999 51/49 30.02 KHHV 220935Z AUTO 14013G20KT 10SM CAVOK 51/49 A3002 RMK A01
OPNH Nawabshah Pakistan 14 0 6000 43/15 29.68 OPNH 220900Z 13514KT 6000 NSC 43/15 Q1005 NOSIG
OPSK Sukkur Pakistan 6 0 4000 42/16 29.62 OPSK 220900Z 23006KT 4000 HZ NSC 42/16 Q1003 NOSIG
VEKO 8 0 6000 42/17 29.65 VEKO 220900Z 07008 KT 6000 SCT020 42/17 Q1004
OMAH 17 0 9999 41/4 29.72 OMAH 220930Z 18017KT 4000 DU CAVOK 41/04 Q1006 A2972

Show more